createdAt,value
2019-03-26T00:00:43.626Z,16.60
2019-03-26T00:03:14.066Z,16.40
2019-03-26T00:05:44.471Z,16.30
2019-03-26T00:08:14.090Z,16.30
2019-03-26T00:10:43.785Z,16.20
2019-03-26T00:13:13.419Z,16.20
2019-03-26T00:15:42.894Z,16.30
2019-03-26T00:18:12.401Z,16.40
2019-03-26T00:20:41.629Z,16.40
2019-03-26T00:23:12.256Z,16.50
2019-03-26T00:25:41.674Z,16.50
2019-03-26T00:28:11.185Z,16.30
2019-03-26T00:30:40.802Z,16.20
2019-03-26T00:33:11.399Z,16.00
2019-03-26T00:35:40.786Z,15.80
2019-03-26T00:38:10.300Z,15.60
2019-03-26T00:40:40.226Z,15.40
2019-03-26T00:43:09.580Z,15.20
2019-03-26T00:45:39.152Z,15.00
2019-03-26T00:48:08.587Z,14.80
2019-03-26T00:50:38.358Z,14.70
2019-03-26T00:53:07.781Z,14.50
2019-03-26T00:55:37.314Z,14.40
2019-03-26T00:58:06.880Z,14.30
2019-03-26T01:00:37.076Z,14.30
2019-03-26T01:03:06.636Z,14.20
2019-03-26T01:05:36.120Z,14.00
2019-03-26T01:08:05.429Z,13.90
2019-03-26T01:10:34.828Z,13.90
2019-03-26T01:13:04.186Z,14.00
2019-03-26T01:15:33.786Z,14.00
2019-03-26T01:18:03.146Z,14.00
2019-03-26T01:20:32.825Z,14.00
2019-03-26T01:23:03.567Z,13.90
2019-03-26T01:25:33.516Z,13.90
2019-03-26T01:28:03.153Z,13.80
2019-03-26T01:30:32.583Z,13.90
2019-03-26T01:33:02.155Z,13.90
2019-03-26T01:35:31.418Z,13.90
2019-03-26T01:38:01.143Z,13.90
2019-03-26T01:40:30.973Z,13.90
2019-03-26T01:43:00.588Z,13.90
2019-03-26T01:45:30.148Z,13.90
2019-03-26T01:47:59.392Z,13.80
2019-03-26T01:50:28.959Z,13.70
2019-03-26T01:52:58.708Z,13.70
2019-03-26T01:55:28.023Z,13.70
2019-03-26T01:57:57.374Z,13.70
2019-03-26T02:00:26.979Z,13.60
2019-03-26T02:02:56.280Z,13.60
2019-03-26T02:05:25.756Z,13.60
2019-03-26T02:07:55.228Z,13.60
2019-03-26T02:10:25.035Z,13.70
2019-03-26T02:12:54.557Z,13.80
2019-03-26T02:15:29.537Z,13.80
2019-03-26T02:17:58.886Z,13.80
2019-03-26T02:20:28.511Z,13.80
2019-03-26T02:22:58.060Z,13.70
2019-03-26T02:25:27.808Z,13.60
2019-03-26T02:27:57.451Z,13.50
2019-03-26T02:30:26.887Z,13.50
2019-03-26T02:32:56.611Z,13.40
2019-03-26T02:35:26.271Z,13.30
2019-03-26T02:37:55.791Z,13.20
2019-03-26T02:40:25.429Z,13.20
2019-03-26T02:42:54.880Z,13.10
2019-03-26T02:45:24.269Z,13.10
2019-03-26T02:47:53.756Z,13.00
2019-03-26T02:50:23.390Z,12.90
2019-03-26T02:52:52.751Z,12.90
2019-03-26T02:55:22.141Z,12.90
2019-03-26T02:57:51.697Z,12.80
2019-03-26T03:00:21.268Z,12.70
2019-03-26T03:02:50.639Z,12.60
2019-03-26T03:05:34.313Z,12.60
2019-03-26T03:07:50.043Z,12.50
2019-03-26T03:10:19.471Z,12.50
2019-03-26T03:12:48.992Z,12.40
2019-03-26T03:15:18.793Z,12.40
2019-03-26T03:17:49.675Z,12.30
2019-03-26T03:20:20.819Z,12.30
2019-03-26T03:22:50.909Z,12.30
2019-03-26T03:25:20.294Z,12.30
2019-03-26T03:27:50.149Z,12.20
2019-03-26T03:30:20.696Z,12.20
2019-03-26T03:32:50.239Z,12.20
2019-03-26T03:35:20.044Z,12.10
2019-03-26T03:37:49.878Z,12.00
2019-03-26T03:40:19.820Z,11.90
2019-03-26T03:42:49.504Z,11.90
2019-03-26T03:45:19.547Z,11.80
2019-03-26T03:47:49.033Z,11.80
2019-03-26T03:50:18.705Z,11.80
2019-03-26T03:52:48.550Z,11.80
2019-03-26T03:55:17.984Z,11.80
2019-03-26T03:57:48.091Z,11.80
2019-03-26T04:00:21.524Z,11.70
2019-03-26T04:02:51.046Z,11.60
2019-03-26T04:05:20.613Z,11.60
2019-03-26T04:07:50.336Z,11.60
2019-03-26T04:10:19.716Z,11.60
2019-03-26T04:12:49.287Z,11.60
2019-03-26T04:15:18.749Z,11.60
2019-03-26T04:17:48.479Z,11.60
2019-03-26T04:20:17.933Z,11.60
2019-03-26T04:22:47.509Z,11.50
2019-03-26T04:25:17.166Z,11.50
2019-03-26T04:27:46.815Z,11.50
2019-03-26T04:30:16.693Z,11.50
2019-03-26T04:32:46.628Z,11.40
2019-03-26T04:35:16.228Z,11.40
2019-03-26T04:37:45.789Z,11.40
2019-03-26T04:40:15.744Z,11.50
2019-03-26T04:42:45.408Z,11.40
2019-03-26T04:45:14.832Z,11.30
2019-03-26T04:47:45.060Z,11.20
2019-03-26T04:50:14.465Z,11.20
2019-03-26T04:52:43.967Z,11.20
2019-03-26T04:55:13.506Z,11.20
2019-03-26T04:57:42.939Z,11.20
2019-03-26T05:00:12.668Z,11.10
2019-03-26T05:02:42.269Z,11.10
2019-03-26T05:05:12.529Z,11.10
2019-03-26T05:07:42.070Z,11.10
2019-03-26T05:10:11.649Z,11.00
2019-03-26T05:12:41.339Z,11.00
2019-03-26T05:15:10.850Z,11.00
2019-03-26T05:17:40.218Z,11.00
2019-03-26T05:20:09.887Z,11.00
2019-03-26T05:22:39.392Z,10.90
2019-03-26T05:25:08.939Z,10.90
2019-03-26T05:27:45.445Z,10.90
2019-03-26T05:30:08.138Z,10.90
2019-03-26T05:32:37.583Z,10.90
2019-03-26T05:35:07.724Z,10.90
2019-03-26T05:37:37.358Z,10.90
2019-03-26T05:40:07.133Z,10.80
2019-03-26T05:42:36.987Z,10.70
2019-03-26T05:45:07.887Z,10.70
2019-03-26T05:47:37.081Z,10.70
2019-03-26T05:50:06.878Z,10.70
2019-03-26T05:52:36.616Z,10.70
2019-03-26T05:55:06.529Z,10.60
2019-03-26T05:57:35.763Z,10.50
2019-03-26T06:00:06.077Z,10.50
2019-03-26T06:02:35.597Z,10.40
2019-03-26T06:05:05.373Z,10.40
2019-03-26T06:07:34.673Z,10.30
2019-03-26T06:10:04.351Z,10.30
2019-03-26T06:12:34.185Z,10.30
2019-03-26T06:15:03.612Z,10.30
2019-03-26T06:17:33.236Z,10.20
2019-03-26T06:20:02.908Z,10.10
2019-03-26T06:22:32.667Z,10.00
2019-03-26T06:25:02.628Z,9.90
2019-03-26T06:27:31.930Z,9.90
2019-03-26T06:30:01.399Z,9.90
2019-03-26T06:32:31.615Z,9.90
2019-03-26T06:35:01.867Z,9.80
2019-03-26T06:37:31.807Z,9.80
2019-03-26T06:40:01.260Z,9.80
2019-03-26T06:42:30.953Z,9.90
2019-03-26T06:45:00.343Z,9.90
2019-03-26T06:47:30.871Z,10.00
2019-03-26T06:50:00.351Z,10.00
2019-03-26T06:52:29.658Z,10.00
2019-03-26T06:54:59.077Z,10.00
2019-03-26T06:57:35.612Z,10.10
2019-03-26T06:59:58.377Z,10.00
2019-03-26T07:02:27.999Z,10.00
2019-03-26T07:04:57.643Z,10.00
2019-03-26T07:07:31.655Z,10.00
2019-03-26T07:09:57.103Z,10.00
2019-03-26T07:12:26.576Z,9.90
2019-03-26T07:14:57.013Z,10.00
2019-03-26T07:17:27.295Z,10.00
2019-03-26T07:19:56.638Z,10.10
2019-03-26T07:22:25.912Z,10.10
2019-03-26T07:24:56.393Z,10.30
2019-03-26T07:27:25.969Z,10.20
2019-03-26T07:29:55.507Z,10.30
2019-03-26T07:32:24.759Z,10.30
2019-03-26T07:34:54.500Z,10.30
2019-03-26T07:37:24.183Z,10.30
2019-03-26T07:39:54.596Z,10.20
2019-03-26T07:42:24.018Z,10.10
2019-03-26T07:44:54.385Z,10.20
2019-03-26T07:47:24.032Z,10.20
2019-03-26T07:49:53.544Z,10.10
2019-03-26T07:52:22.939Z,10.10
2019-03-26T07:54:52.327Z,10.20
2019-03-26T07:57:21.940Z,10.20
2019-03-26T07:59:51.391Z,10.20
2019-03-26T08:02:20.974Z,10.10
2019-03-26T08:04:50.311Z,10.00
2019-03-26T08:07:19.729Z,10.00
2019-03-26T08:09:49.117Z,10.00
2019-03-26T08:12:18.395Z,10.00
2019-03-26T08:14:48.560Z,9.90
2019-03-26T08:17:18.116Z,9.90
2019-03-26T08:19:47.591Z,9.90
2019-03-26T08:22:17.040Z,9.90
2019-03-26T08:24:46.458Z,10.00
2019-03-26T08:27:15.767Z,10.00
2019-03-26T08:29:45.137Z,10.00
2019-03-26T08:32:14.926Z,9.90
2019-03-26T08:34:46.601Z,9.90
2019-03-26T08:37:13.700Z,9.80
2019-03-26T08:39:43.312Z,9.90
2019-03-26T08:42:13.251Z,9.90
2019-03-26T08:44:42.964Z,9.90
2019-03-26T08:47:13.624Z,9.90
2019-03-26T08:49:43.217Z,9.90
2019-03-26T08:52:12.573Z,9.90
2019-03-26T08:54:41.837Z,9.80
2019-03-26T08:57:11.403Z,9.80
2019-03-26T08:59:40.789Z,9.80
2019-03-26T09:02:10.491Z,9.80
2019-03-26T09:04:40.006Z,9.80
2019-03-26T09:07:11.063Z,9.80
2019-03-26T09:09:39.925Z,9.90
2019-03-26T09:12:08.824Z,9.80
2019-03-26T09:14:38.112Z,9.80
2019-03-26T09:17:07.650Z,9.80
2019-03-26T09:19:38.053Z,9.80
2019-03-26T09:22:07.369Z,9.80
2019-03-26T09:24:36.939Z,9.70
2019-03-26T09:27:06.355Z,9.70
2019-03-26T09:29:35.407Z,9.70
2019-03-26T09:32:05.232Z,9.70
2019-03-26T09:34:34.813Z,9.70
2019-03-26T09:37:05.222Z,9.70
2019-03-26T09:39:38.110Z,9.70
2019-03-26T09:42:04.895Z,9.70
2019-03-26T09:44:35.005Z,9.70
2019-03-26T09:47:15.588Z,9.60
2019-03-26T09:49:34.406Z,9.60
2019-03-26T09:52:03.862Z,9.60
2019-03-26T09:54:33.426Z,9.60
2019-03-26T09:57:03.003Z,9.50
2019-03-26T09:59:32.738Z,9.50
2019-03-26T10:02:03.172Z,9.50
2019-03-26T10:04:32.511Z,9.50
2019-03-26T10:07:01.855Z,9.50
2019-03-26T10:09:31.333Z,9.50
2019-03-26T10:12:01.042Z,9.50
2019-03-26T10:14:30.331Z,9.50
2019-03-26T10:16:59.753Z,9.60
2019-03-26T10:19:29.090Z,9.50
2019-03-26T10:21:58.800Z,9.50
2019-03-26T10:24:28.448Z,9.50
2019-03-26T10:26:58.241Z,9.50
2019-03-26T10:29:30.640Z,9.60
2019-03-26T10:31:57.511Z,9.60
2019-03-26T10:34:27.168Z,9.60
2019-03-26T10:36:56.570Z,9.50
2019-03-26T10:39:26.076Z,9.50
2019-03-26T10:41:55.560Z,9.40
2019-03-26T10:44:25.359Z,9.40
2019-03-26T10:46:54.960Z,9.50
2019-03-26T10:49:24.346Z,9.50
2019-03-26T10:51:53.548Z,9.50
2019-03-26T10:54:23.090Z,9.60
2019-03-26T10:56:52.595Z,9.50
2019-03-26T10:59:21.962Z,9.40
2019-03-26T11:01:51.595Z,9.40
2019-03-26T11:04:20.983Z,9.50
2019-03-26T11:06:50.500Z,9.50
2019-03-26T11:09:25.604Z,9.50
2019-03-26T11:11:49.853Z,9.50
2019-03-26T11:14:19.151Z,9.50
2019-03-26T11:16:48.636Z,9.50
2019-03-26T11:19:17.948Z,9.50
2019-03-26T11:21:47.278Z,9.50
2019-03-26T11:24:16.827Z,9.40
2019-03-26T11:26:46.339Z,9.40
2019-03-26T11:29:15.835Z,9.50
2019-03-26T11:31:45.412Z,9.50
2019-03-26T11:34:15.127Z,9.50
2019-03-26T11:36:44.304Z,9.40
2019-03-26T11:39:14.398Z,9.40
2019-03-26T11:41:43.655Z,9.40
2019-03-26T11:44:13.095Z,9.40
2019-03-26T11:46:42.643Z,9.40
2019-03-26T11:49:12.065Z,9.40
2019-03-26T11:51:41.571Z,9.50
2019-03-26T11:54:10.887Z,9.50
2019-03-26T11:56:40.282Z,9.50
2019-03-26T11:59:09.796Z,9.50
2019-03-26T12:01:39.453Z,9.50
2019-03-26T12:04:08.895Z,9.60
2019-03-26T12:06:38.988Z,9.60
2019-03-26T12:09:08.810Z,9.60
2019-03-26T12:11:38.316Z,9.60
2019-03-26T12:14:07.610Z,9.60
2019-03-26T12:16:37.112Z,9.60
2019-03-26T12:19:06.398Z,9.60
2019-03-26T12:21:35.772Z,9.60
2019-03-26T12:24:05.391Z,9.60
2019-03-26T12:26:35.201Z,9.60
2019-03-26T12:29:04.628Z,9.60
2019-03-26T12:31:34.007Z,9.60
2019-03-26T12:34:03.570Z,9.60
2019-03-26T12:36:39.921Z,9.70
2019-03-26T12:39:02.920Z,9.60
2019-03-26T12:41:32.331Z,9.60
2019-03-26T12:44:02.779Z,9.50
2019-03-26T12:46:32.076Z,9.50
2019-03-26T12:49:01.555Z,9.50
2019-03-26T12:51:31.406Z,9.50
2019-03-26T12:54:00.801Z,9.40
2019-03-26T12:56:30.469Z,9.40
2019-03-26T12:58:59.813Z,9.40
2019-03-26T13:01:29.327Z,9.40
2019-03-26T13:04:11.662Z,9.40
2019-03-26T13:06:28.375Z,9.30
2019-03-26T13:08:57.836Z,9.30
2019-03-26T13:11:27.538Z,9.20
2019-03-26T13:13:56.964Z,9.30
2019-03-26T13:16:26.526Z,9.20
2019-03-26T13:18:56.911Z,9.20
2019-03-26T13:21:26.486Z,9.20
2019-03-26T13:23:55.812Z,9.20
2019-03-26T13:26:25.202Z,9.20
2019-03-26T13:28:54.702Z,9.20
2019-03-26T13:31:24.232Z,9.10
2019-03-26T13:33:53.414Z,9.10
2019-03-26T13:36:22.857Z,9.00
2019-03-26T13:38:52.142Z,9.00
2019-03-26T13:41:21.495Z,9.00
2019-03-26T13:43:50.789Z,9.00
2019-03-26T13:46:20.480Z,8.90
2019-03-26T13:48:50.017Z,8.90
2019-03-26T13:51:19.397Z,8.90
2019-03-26T13:53:49.238Z,8.90
2019-03-26T13:56:18.479Z,8.80
2019-03-26T13:58:48.781Z,8.80
2019-03-26T14:01:18.496Z,8.80
2019-03-26T14:03:47.993Z,8.80
2019-03-26T14:06:17.578Z,8.80
2019-03-26T14:08:47.051Z,8.80
2019-03-26T14:11:16.402Z,8.80
2019-03-26T14:13:45.599Z,8.80
2019-03-26T14:16:15.190Z,8.80
2019-03-26T14:18:45.738Z,8.90
2019-03-26T14:21:15.384Z,8.90
2019-03-26T14:23:45.297Z,8.90
2019-03-26T14:26:14.782Z,8.90
2019-03-26T14:28:44.538Z,8.80
2019-03-26T14:31:15.720Z,8.80
2019-03-26T14:33:45.097Z,8.80
2019-03-26T14:36:14.497Z,8.80
2019-03-26T14:38:44.181Z,8.80
2019-03-26T14:41:14.415Z,8.90
2019-03-26T14:43:44.885Z,8.80
2019-03-26T14:46:14.227Z,8.80
2019-03-26T14:48:43.662Z,8.90
2019-03-26T14:51:13.187Z,8.90
2019-03-26T14:53:42.477Z,9.00
2019-03-26T14:56:13.487Z,9.60
2019-03-26T14:58:43.120Z,9.60
2019-03-26T15:01:12.493Z,9.80
2019-03-26T15:03:41.863Z,9.70
2019-03-26T15:06:11.097Z,9.60
2019-03-26T15:08:40.338Z,9.40
2019-03-26T15:11:09.903Z,9.40
2019-03-26T15:13:39.381Z,9.40
2019-03-26T15:16:08.836Z,9.40
2019-03-26T15:18:38.326Z,9.40
2019-03-26T15:21:07.690Z,9.40
2019-03-26T15:23:36.914Z,9.50
2019-03-26T15:26:06.247Z,9.50
2019-03-26T15:28:35.559Z,9.40
2019-03-26T15:31:05.697Z,9.50
2019-03-26T15:33:37.033Z,9.50
2019-03-26T15:36:06.529Z,9.40
2019-03-26T15:38:36.189Z,9.50
2019-03-26T15:41:05.900Z,9.50
2019-03-26T15:43:35.339Z,9.60
2019-03-26T15:46:04.972Z,9.60
2019-03-26T15:48:34.559Z,9.70
2019-03-26T15:51:03.885Z,9.70
2019-03-26T15:53:33.469Z,9.70
2019-03-26T15:56:03.089Z,9.70
2019-03-26T15:58:33.352Z,9.70
2019-03-26T16:01:02.805Z,9.70
2019-03-26T16:03:32.433Z,9.70
2019-03-26T16:06:01.795Z,9.80
2019-03-26T16:08:31.019Z,9.90
2019-03-26T16:11:00.334Z,9.90
2019-03-26T16:13:30.622Z,9.90
2019-03-26T16:16:00.310Z,9.70
2019-03-26T16:18:29.528Z,9.60
2019-03-26T16:20:58.921Z,9.60
2019-03-26T16:23:28.566Z,9.70
2019-03-26T16:25:58.170Z,9.70
2019-03-26T16:28:27.532Z,9.70
2019-03-26T16:30:56.693Z,9.70
2019-03-26T16:33:26.143Z,9.80
2019-03-26T16:35:55.664Z,9.80
2019-03-26T16:38:25.067Z,9.80
2019-03-26T16:40:55.212Z,9.90
2019-03-26T16:43:24.883Z,9.90
2019-03-26T16:45:54.484Z,9.90
2019-03-26T16:48:23.945Z,9.90
2019-03-26T16:50:53.374Z,9.90
2019-03-26T16:53:22.938Z,10.00
2019-03-26T16:55:52.378Z,10.10
2019-03-26T16:58:21.940Z,10.20
2019-03-26T17:00:51.836Z,10.20
2019-03-26T17:03:31.157Z,10.50
2019-03-26T17:05:51.978Z,10.50
2019-03-26T17:08:22.796Z,10.70
2019-03-26T17:10:51.698Z,10.70
2019-03-26T17:13:21.303Z,10.90
2019-03-26T17:15:51.010Z,11.10
2019-03-26T17:18:21.068Z,11.30
2019-03-26T17:20:50.335Z,11.30
2019-03-26T17:23:20.612Z,11.50
2019-03-26T17:25:50.140Z,11.50
2019-03-26T17:28:20.184Z,11.70
2019-03-26T17:30:49.922Z,11.60
2019-03-26T17:33:19.272Z,11.80
2019-03-26T17:35:48.892Z,11.80
2019-03-26T17:38:18.076Z,11.80
2019-03-26T17:40:47.697Z,11.80
2019-03-26T17:43:17.037Z,11.80
2019-03-26T17:45:45.855Z,11.80
2019-03-26T17:48:15.384Z,12.10
2019-03-26T17:50:44.530Z,12.30
2019-03-26T17:53:14.061Z,12.70
2019-03-26T17:55:43.639Z,13.80
2019-03-26T17:58:13.108Z,15.60
2019-03-26T18:00:43.551Z,16.10
2019-03-26T18:03:25.702Z,16.60
2019-03-26T18:05:43.224Z,16.30
2019-03-26T18:08:12.637Z,16.10
2019-03-26T18:10:42.371Z,17.10
2019-03-26T18:13:11.987Z,16.60
2019-03-26T18:15:42.359Z,19.70
2019-03-26T18:18:12.054Z,19.70
2019-03-26T18:20:41.567Z,20.00
2019-03-26T18:23:11.047Z,19.90
2019-03-26T18:25:41.394Z,17.80
2019-03-26T18:28:10.932Z,17.80
2019-03-26T18:30:40.157Z,17.00
2019-03-26T18:33:09.249Z,16.50
2019-03-26T18:35:39.762Z,16.70
2019-03-26T18:38:08.952Z,16.60
2019-03-26T18:40:38.449Z,17.60
2019-03-26T18:43:07.989Z,17.70
2019-03-26T18:45:38.393Z,18.70
2019-03-26T18:48:07.924Z,18.60
2019-03-26T18:50:43.904Z,18.50
2019-03-26T18:53:13.157Z,17.70
2019-03-26T18:55:42.419Z,17.50
2019-03-26T18:58:11.792Z,17.80
2019-03-26T19:00:41.166Z,17.80
2019-03-26T19:03:10.986Z,17.60
2019-03-26T19:05:41.335Z,17.90
2019-03-26T19:08:11.007Z,17.80
2019-03-26T19:10:40.474Z,17.20
2019-03-26T19:13:19.393Z,16.90
2019-03-26T19:15:41.139Z,17.10
2019-03-26T19:18:10.401Z,17.40
2019-03-26T19:20:40.443Z,18.50
2019-03-26T19:23:09.936Z,18.50
2019-03-26T19:25:40.812Z,20.50
2019-03-26T19:28:10.157Z,20.40
2019-03-26T19:30:40.303Z,20.90
2019-03-26T19:33:09.778Z,20.90
2019-03-26T19:35:39.111Z,21.10
2019-03-26T19:38:08.639Z,20.60
2019-03-26T19:40:38.108Z,21.30
2019-03-26T19:43:11.249Z,22.50
2019-03-26T19:45:37.117Z,23.30
2019-03-26T19:48:06.818Z,23.20
2019-03-26T19:50:35.678Z,23.10
2019-03-26T19:53:05.077Z,22.80
2019-03-26T19:55:34.628Z,23.20
2019-03-26T19:58:04.545Z,22.10
2019-03-26T20:00:34.870Z,21.30
2019-03-26T20:03:04.369Z,21.30
2019-03-26T20:05:35.345Z,21.40
2019-03-26T20:08:03.961Z,20.80
2019-03-26T20:10:33.407Z,22.10
2019-03-26T20:13:02.570Z,22.10
2019-03-26T20:15:31.988Z,21.00
2019-03-26T20:18:02.040Z,20.40
2019-03-26T20:20:31.780Z,20.40
2019-03-26T20:23:01.234Z,19.60
2019-03-26T20:25:30.583Z,18.90
2019-03-26T20:28:00.215Z,18.00
2019-03-26T20:30:29.765Z,17.50
2019-03-26T20:32:58.971Z,16.90
2019-03-26T20:35:28.114Z,16.50
2019-03-26T20:37:57.943Z,16.70
2019-03-26T20:40:27.709Z,16.50
2019-03-26T20:42:57.112Z,16.30
2019-03-26T20:45:26.668Z,16.30
2019-03-26T20:47:56.919Z,17.20
2019-03-26T20:50:26.482Z,17.10
2019-03-26T20:52:55.753Z,17.30
2019-03-26T20:55:30.027Z,17.00
2019-03-26T20:57:59.367Z,16.10
2019-03-26T21:00:34.679Z,15.60
2019-03-26T21:03:04.201Z,15.30
2019-03-26T21:05:33.970Z,15.20
2019-03-26T21:08:04.756Z,16.60
2019-03-26T21:10:34.157Z,16.60
2019-03-26T21:13:03.525Z,17.40
2019-03-26T21:15:32.875Z,17.90
2019-03-26T21:18:02.273Z,18.00
2019-03-26T21:20:31.754Z,18.00
2019-03-26T21:23:01.291Z,18.00
2019-03-26T21:25:30.432Z,17.80
2019-03-26T21:27:59.887Z,17.10
2019-03-26T21:30:29.184Z,16.20
2019-03-26T21:32:58.424Z,15.80
2019-03-26T21:35:29.084Z,15.60
2019-03-26T21:37:57.696Z,15.50
2019-03-26T21:40:27.756Z,14.90
2019-03-26T21:42:57.343Z,14.90
2019-03-26T21:45:33.774Z,14.90
2019-03-26T21:48:03.742Z,14.80
2019-03-26T21:50:34.182Z,14.60
2019-03-26T21:53:03.868Z,14.50
2019-03-26T21:55:33.493Z,14.60
2019-03-26T21:58:02.874Z,14.90
2019-03-26T22:00:32.225Z,15.20
2019-03-26T22:03:02.072Z,15.30
2019-03-26T22:05:31.337Z,15.90
2019-03-26T22:08:00.843Z,15.90
2019-03-26T22:10:30.483Z,15.80
2019-03-26T22:13:00.356Z,15.40
2019-03-26T22:15:29.901Z,15.20
2019-03-26T22:17:59.481Z,14.80
2019-03-26T22:20:28.981Z,14.60
2019-03-26T22:22:59.355Z,14.60
2019-03-26T22:25:29.197Z,14.60
2019-03-26T22:27:58.463Z,14.50
2019-03-26T22:30:27.865Z,14.50
2019-03-26T22:32:57.293Z,14.50
2019-03-26T22:35:26.716Z,14.70
2019-03-26T22:37:56.322Z,14.60
2019-03-26T22:40:25.692Z,14.60
2019-03-26T22:42:55.264Z,14.60
2019-03-26T22:45:24.715Z,14.60
2019-03-26T22:47:54.282Z,14.50
2019-03-26T22:50:23.701Z,14.50
2019-03-26T22:52:52.910Z,14.50
2019-03-26T22:55:22.370Z,14.50
2019-03-26T22:57:52.668Z,14.40
2019-03-26T23:00:23.405Z,14.30
2019-03-26T23:02:52.805Z,14.30
2019-03-26T23:05:22.013Z,15.00
2019-03-26T23:07:51.664Z,15.20
2019-03-26T23:10:21.467Z,14.80
2019-03-26T23:12:50.848Z,14.50
2019-03-26T23:15:24.211Z,14.40
2019-03-26T23:17:54.792Z,14.50
2019-03-26T23:20:24.449Z,14.40
2019-03-26T23:22:54.672Z,14.60
2019-03-26T23:25:24.324Z,14.60
2019-03-26T23:27:53.675Z,14.50
2019-03-26T23:30:23.874Z,14.50
2019-03-26T23:32:53.030Z,14.50
2019-03-26T23:35:22.615Z,14.50
2019-03-26T23:37:52.352Z,14.60
2019-03-26T23:40:22.435Z,14.70
2019-03-26T23:42:52.133Z,14.60
2019-03-26T23:45:21.510Z,14.50
2019-03-26T23:47:50.886Z,14.10
2019-03-26T23:50:20.437Z,14.10
2019-03-26T23:52:49.639Z,14.20
2019-03-26T23:55:19.127Z,14.40
2019-03-26T23:57:48.610Z,14.30
